Time;durP1;ratioP1;P1;durP2;ratioP2;P2;SDS_P1;SDS_P2;PMS_P1;PMS_P2;Temp;Humidity;BMP_temperature;BMP_pressure;BME280_temperature;BME280_humidity;BME280_pressure;Samples;Min_cycle;Max_cycle;Signal;HPM_P1;HPM_P2
2022/11/18 00:01:31;;;;;;;1.50;1.00;;;11.90;88.30;;;;;;6237092;23;20506;-49
2022/11/18 00:04:02;;;;;;;3.50;1.37;;;11.90;88.30;;;;;;6186978;22;20432;-50
2022/11/18 00:06:30;;;;;;;3.23;0.90;;;11.90;88.20;;;;;;6188015;23;20430;-49
2022/11/18 00:09:00;;;;;;;1.00;0.80;;;11.90;88.40;;;;;;6210922;22;20804;-50
2022/11/18 00:14:19;;;;;;;1.20;1.10;;;11.90;88.50;;;;;;6138621;23;20435;-49
2022/11/18 00:16:50;;;;;;;2.93;1.03;;;11.90;88.40;;;;;;6187020;23;20381;-50
2022/11/18 00:19:21;;;;;;;1.70;1.00;;;11.90;88.40;;;;;;6186548;22;20542;-50
2022/11/18 00:21:50;;;;;;;1.73;1.20;;;11.90;88.40;;;;;;6187881;23;20412;-50
2022/11/18 00:24:19;;;;;;;4.70;1.60;;;11.90;88.50;;;;;;6236952;22;20441;-50
2022/11/18 00:26:48;;;;;;;3.00;0.90;;;11.90;88.50;;;;;;6187639;23;20896;-50
2022/11/18 00:29:16;;;;;;;0.90;0.90;;;11.90;88.40;;;;;;6236327;22;20459;-50
2022/11/18 00:31:45;;;;;;;1.47;1.07;;;11.90;88.50;;;;;;6186543;23;20398;-50
2022/11/18 00:34:16;;;;;;;1.50;1.03;;;11.90;88.80;;;;;;6236612;22;20498;-50
2022/11/18 00:36:46;;;;;;;1.40;1.00;;;11.90;88.30;;;;;;6187793;23;20376;-50
2022/11/18 00:39:16;;;;;;;2.17;0.97;;;11.90;88.20;;;;;;6185732;22;20807;-50
2022/11/18 00:44:32;;;;;;;1.30;1.13;;;11.90;88.30;;;;;;6186153;22;20519;-50
2022/11/18 00:47:00;;;;;;;1.50;1.00;;;11.90;88.20;;;;;;6186579;23;20415;-50
2022/11/18 00:49:29;;;;;;;2.27;1.10;;;11.90;88.20;;;;;;6185948;22;20769;-50
2022/11/18 00:52:00;;;;;;;1.50;0.97;;;11.90;88.20;;;;;;6237461;23;20402;-50
2022/11/18 00:54:28;;;;;;;2.23;1.10;;;11.90;88.30;;;;;;6185472;22;20438;-50
2022/11/18 00:56:57;;;;;;;1.73;1.00;;;11.90;88.20;;;;;;6237874;23;20406;-50
2022/11/18 00:59:27;;;;;;;1.33;0.70;;;11.90;88.10;;;;;;6211914;22;20837;-50
2022/11/18 01:01:55;;;;;;;1.00;0.83;;;11.90;88.00;;;;;;6236303;23;20419;-50
2022/11/18 01:04:24;;;;;;;0.93;0.87;;;11.90;88.10;;;;;;6185931;22;20515;-50
2022/11/18 01:06:52;;;;;;;0.97;0.90;;;11.90;88.20;;;;;;6187655;23;20411;-49
2022/11/18 01:09:23;;;;;;;1.17;0.73;;;11.90;88.20;;;;;;6185508;22;20764;-50
2022/11/18 01:14:40;;;;;;;1.13;1.03;;;11.90;88.20;;;;;;6186037;22;20463;-49
2022/11/18 01:17:10;;;;;;;0.93;0.80;;;11.90;88.30;;;;;;6236554;23;20449;-49
2022/11/18 01:19:38;;;;;;;1.20;1.10;;;11.90;88.30;;;;;;6185696;22;20773;-49
2022/11/18 01:22:07;;;;;;;1.43;1.30;;;11.90;88.40;;;;;;6186443;23;20909;-49
2022/11/18 01:24:36;;;;;;;1.30;0.80;;;11.90;88.50;;;;;;6185518;22;20439;-49
2022/11/18 01:27:05;;;;;;;1.83;1.10;;;11.90;88.40;;;;;;6187331;23;20424;-49
2022/11/18 01:29:34;;;;;;;3.43;1.27;;;11.90;88.40;;;;;;6235725;22;20431;-48
2022/11/18 01:32:02;;;;;;;2.47;1.47;;;11.80;88.90;;;;;;6236586;23;20375;-49
2022/11/18 01:34:51;;;;;;;2.23;1.20;;;11.90;88.60;;;;;;6185858;22;20477;-49
2022/11/18 01:37:20;;;;;;;2.67;1.50;;;11.80;88.50;;;;;;6187365;23;20486;-50
2022/11/18 01:39:50;;;;;;;1.43;1.13;;;11.90;88.80;;;;;;6185364;22;20438;-49
2022/11/18 01:42:18;;;;;;;1.07;0.70;;;11.80;88.70;;;;;;6186673;23;20916;-49
2022/11/18 01:45:19;;;;;;;2.47;1.10;;;11.80;88.50;;;;;;6186103;22;20904;-49
2022/11/18 01:47:52;;;;;;;1.50;1.10;;;11.80;88.50;;;;;;6237100;23;20429;-49
2022/11/18 01:50:23;;;;;;;1.03;0.90;;;11.90;88.60;;;;;;6186620;23;20380;-50
2022/11/18 01:52:54;;;;;;;1.63;0.80;;;11.80;88.40;;;;;;6236566;22;20778;-50
2022/11/18 01:55:26;;;;;;;1.10;0.70;;;11.80;88.20;;;;;;6188174;23;20403;-49
2022/11/18 01:58:02;;;;;;;1.60;1.17;;;11.90;88.30;;;;;;6188425;23;20388;-49
2022/11/18 02:00:31;;;;;;;0.90;0.80;;;11.80;88.20;;;;;;6185373;23;20395;-49
2022/11/18 02:03:02;;;;;;;2.10;1.13;;;11.80;88.20;;;;;;6186378;23;20470;-49
2022/11/18 02:05:33;;;;;;;1.87;1.10;;;11.80;88.30;;;;;;6186948;23;20370;-50
2022/11/18 02:08:03;;;;;;;2.80;1.10;;;11.80;88.20;;;;;;6185861;23;20431;-49
2022/11/18 02:10:33;;;;;;;5.23;1.50;;;11.80;88.10;;;;;;6235836;23;20429;-49
2022/11/18 02:13:02;;;;;;;1.10;0.93;;;11.80;88.10;;;;;;6213236;23;20407;-49
2022/11/18 02:15:47;;;;;;;2.87;1.00;;;11.80;88.10;;;;;;6235785;23;20519;-50
2022/11/18 02:18:23;;;;;;;1.40;0.83;;;11.80;88.00;;;;;;6186594;23;20471;-49
2022/11/18 02:20:57;;;;;;;2.20;1.20;;;11.80;88.10;;;;;;6186292;23;20371;-49
2022/11/18 02:24:09;;;;;;;1.30;1.17;;;11.80;88.10;;;;;;6235258;22;20436;-49
2022/11/18 02:27:02;;;;;;;1.80;0.73;;;11.80;88.00;;;;;;6186093;23;20399;-49
2022/11/18 02:29:38;;;;;;;4.20;2.03;;;11.80;87.90;;;;;;6184926;22;20518;-50
2022/11/18 02:32:13;;;;;;;2.23;1.03;;;11.80;87.90;;;;;;6185952;23;20375;-50
2022/11/18 02:34:48;;;;;;;1.13;0.77;;;11.80;88.00;;;;;;6184936;22;20485;-49
2022/11/18 02:37:23;;;;;;;2.47;0.90;;;11.80;88.00;;;;;;6186269;23;20383;-49
2022/11/18 02:39:55;;;;;;;1.40;0.97;;;11.80;88.00;;;;;;6210792;22;20435;-49
2022/11/18 02:42:27;;;;;;;2.53;1.43;;;11.80;87.90;;;;;;6186673;23;20428;-49
2022/11/18 02:45:01;;;;;;;2.97;1.23;;;11.80;88.10;;;;;;6237021;22;20431;-49
2022/11/18 02:47:32;;;;;;;1.23;0.80;;;11.80;88.00;;;;;;6237948;23;20383;-50
2022/11/18 02:50:04;;;;;;;1.07;0.80;;;11.80;88.00;;;;;;6187219;23;20490;-50
2022/11/18 02:52:35;;;;;;;1.90;1.10;;;11.80;87.90;;;;;;6188270;23;20854;-49
2022/11/18 02:55:08;;;;;;;1.50;0.90;;;11.80;87.90;;;;;;6237323;23;20930;-50
2022/11/18 02:57:39;;;;;;;1.43;1.00;;;11.80;88.00;;;;;;6188653;23;20426;-48
2022/11/18 03:00:10;;;;;;;1.73;1.23;;;11.80;87.90;;;;;;6172155;23;20457;-70
2022/11/18 03:02:43;;;;;;;1.07;0.97;;;11.80;87.90;;;;;;6031563;23;20781;-70
2022/11/18 03:05:19;;;;;;;2.43;1.37;;;11.80;88.00;;;;;;6031923;23;20433;-70
2022/11/18 03:07:54;;;;;;;2.10;1.47;;;11.80;88.00;;;;;;6032445;23;20389;-70
2022/11/18 03:10:26;;;;;;;2.03;1.03;;;11.80;88.10;;;;;;6030935;23;20377;-70
2022/11/18 03:13:05;;;;;;;1.40;1.10;;;11.80;88.00;;;;;;6031465;23;20876;-70
2022/11/18 03:15:44;;;;;;;1.47;0.87;;;11.80;87.90;;;;;;6032833;23;20405;-70
2022/11/18 03:18:20;;;;;;;1.30;1.00;;;11.80;88.00;;;;;;6033691;23;20401;-68
2022/11/18 03:20:52;;;;;;;0.63;0.50;;;11.80;88.00;;;;;;6031545;23;20412;-69
2022/11/18 03:23:27;;;;;;;0.80;0.80;;;11.80;87.90;;;;;;6031185;23;20511;-69
2022/11/18 03:25:58;;;;;;;1.07;0.97;;;11.80;87.90;;;;;;6031643;23;20793;-71
2022/11/18 03:28:32;;;;;;;1.10;0.90;;;11.80;87.80;;;;;;6031874;23;20384;-69
2022/11/18 03:31:07;;;;;;;1.30;0.80;;;11.70;87.80;;;;;;6030999;23;20385;-70
2022/11/18 03:33:39;;;;;;;1.40;1.00;;;11.80;87.80;;;;;;6032507;23;20537;-70
2022/11/18 03:36:11;;;;;;;0.70;0.60;;;11.80;87.90;;;;;;6032205;23;20408;-70
2022/11/18 03:38:48;;;;;;;1.10;0.90;;;11.80;87.80;;;;;;6031861;23;20843;-71
2022/11/18 03:41:19;;;;;;;1.47;1.30;;;11.80;87.80;;;;;;6031297;23;20391;-70
2022/11/18 03:43:51;;;;;;;1.83;1.03;;;11.80;87.80;;;;;;6030754;23;20469;-70
2022/11/18 03:46:26;;;;;;;1.73;0.70;;;11.80;87.80;;;;;;6030877;23;20413;-69
2022/11/18 03:48:56;;;;;;;1.90;1.07;;;11.80;87.80;;;;;;6055684;23;20447;-70
2022/11/18 03:51:30;;;;;;;0.97;0.87;;;11.80;87.80;;;;;;6032291;23;20412;-70
2022/11/18 03:54:02;;;;;;;0.83;0.83;;;11.80;87.90;;;;;;6031136;23;20495;-69
2022/11/18 03:56:42;;;;;;;1.77;1.20;;;11.80;87.90;;;;;;6031398;23;20432;-69
2022/11/18 03:59:15;;;;;;;1.43;1.03;;;11.80;87.80;;;;;;6030491;23;20992;-70
2022/11/18 04:01:49;;;;;;;1.95;0.80;;;11.80;87.90;;;;;;6028687;23;20409;-70
2022/11/18 04:04:18;;;;;;;1.57;1.27;;;11.70;87.80;;;;;;6030642;23;20443;-70
2022/11/18 04:06:50;;;;;;;1.93;0.80;;;11.70;87.80;;;;;;6033747;23;20786;-69
2022/11/18 04:09:28;;;;;;;0.80;0.63;;;11.70;87.80;;;;;;6031052;23;20441;-69
2022/11/18 04:12:04;;;;;;;2.53;1.00;;;11.70;87.80;;;;;;6032092;23;20770;-70
2022/11/18 04:14:35;;;;;;;1.90;0.70;;;11.70;87.70;;;;;;6030467;23;20433;-70
2022/11/18 04:17:09;;;;;;;3.03;1.20;;;11.70;87.70;;;;;;6031010;23;20424;-69
2022/11/18 04:19:37;;;;;;;0.80;0.70;;;11.70;87.70;;;;;;6030697;23;20484;-70
2022/11/18 04:22:07;;;;;;;1.10;0.70;;;11.70;87.60;;;;;;6008150;23;20429;-69
2022/11/18 04:24:35;;;;;;;0.90;0.80;;;11.70;87.70;;;;;;6030580;23;20540;-69
2022/11/18 04:27:04;;;;;;;1.50;1.00;;;11.70;87.70;;;;;;6032062;23;20377;-70
2022/11/18 04:29:34;;;;;;;1.57;1.47;;;11.70;87.60;;;;;;6030316;23;20911;-70
2022/11/18 04:32:03;;;;;;;1.00;0.67;;;11.70;87.60;;;;;;6031249;23;20559;-70
2022/11/18 04:34:33;;;;;;;1.07;0.80;;;11.70;87.80;;;;;;6030856;23;20461;-70
2022/11/18 04:37:01;;;;;;;1.60;1.03;;;11.70;87.60;;;;;;6032292;23;20400;-71
2022/11/18 04:39:30;;;;;;;0.87;0.70;;;11.70;87.70;;;;;;6030340;23;20802;-70
2022/11/18 04:41:58;;;;;;;0.80;0.70;;;11.70;87.60;;;;;;6032106;23;20550;-68
2022/11/18 04:44:28;;;;;;;3.67;0.83;;;11.70;87.60;;;;;;6030959;23;20433;-69
2022/11/18 04:46:58;;;;;;;0.70;0.50;;;11.70;87.60;;;;;;6031129;23;20381;-70
2022/11/18 04:49:27;;;;;;;1.57;0.90;;;11.70;87.60;;;;;;6030890;23;20572;-71
2022/11/18 04:51:58;;;;;;;1.27;1.13;;;11.70;87.80;;;;;;6032090;23;20489;-71
2022/11/18 04:54:27;;;;;;;1.77;0.70;;;11.70;87.70;;;;;;6030393;23;20441;-70
2022/11/18 04:56:56;;;;;;;1.00;0.87;;;11.70;87.80;;;;;;6032176;23;20394;-70
2022/11/18 04:59:27;;;;;;;0.93;0.70;;;11.70;87.80;;;;;;6030631;23;20441;-70
2022/11/18 05:01:56;;;;;;;3.63;1.60;;;11.70;87.80;;;;;;6030609;23;20405;-70
2022/11/18 05:04:26;;;;;;;0.97;0.63;;;11.70;87.80;;;;;;6030707;23;20452;-69
2022/11/18 05:06:54;;;;;;;0.70;0.70;;;11.70;87.70;;;;;;6031185;23;20914;-70
2022/11/18 05:09:24;;;;;;;1.33;0.80;;;11.70;87.80;;;;;;6030341;23;20624;-69
2022/11/18 05:14:45;;;;;;;2.73;1.00;;;11.70;87.70;;;;;;6030478;23;20464;-70
2022/11/18 05:17:18;;;;;;;1.50;0.80;;;11.70;87.70;;;;;;6030826;23;20409;-70
2022/11/18 05:19:47;;;;;;;2.10;1.57;;;11.70;87.70;;;;;;6030527;23;20745;-70
2022/11/18 05:22:15;;;;;;;1.30;0.90;;;11.70;87.70;;;;;;6031780;23;20790;-70
2022/11/18 05:24:45;;;;;;;1.23;0.80;;;11.70;87.80;;;;;;6030368;23;20465;-70
2022/11/18 05:27:14;;;;;;;1.83;0.90;;;11.70;87.80;;;;;;6030788;23;20406;-69
2022/11/18 05:29:43;;;;;;;1.13;0.90;;;11.70;87.80;;;;;;6030326;23;20433;-70
2022/11/18 05:32:11;;;;;;;2.13;1.07;;;11.70;87.80;;;;;;6030423;23;20397;-70
2022/11/18 05:34:40;;;;;;;0.80;0.67;;;11.70;87.80;;;;;;6030371;23;20464;-70
2022/11/18 05:37:09;;;;;;;2.50;0.90;;;11.70;87.80;;;;;;6031351;23;20386;-69
2022/11/18 05:39:37;;;;;;;1.80;1.00;;;11.70;87.90;;;;;;6030397;23;20438;-69
2022/11/18 05:44:53;;;;;;;0.90;0.70;;;11.70;87.80;;;;;;6029528;23;20441;-70
2022/11/18 05:47:26;;;;;;;0.80;0.50;;;11.70;87.90;;;;;;6033366;23;20428;-70
2022/11/18 05:49:54;;;;;;;1.00;0.90;;;11.70;87.90;;;;;;6033229;23;20495;-69
2022/11/18 05:52:22;;;;;;;1.23;0.80;;;11.60;87.70;;;;;;6031726;23;20389;-70
2022/11/18 05:54:51;;;;;;;0.87;0.60;;;11.70;87.90;;;;;;6030439;23;20445;-69
2022/11/18 05:57:21;;;;;;;0.60;0.60;;;11.60;87.70;;;;;;6031392;23;20386;-69
2022/11/18 05:59:49;;;;;;;1.17;0.70;;;11.60;87.60;;;;;;6030278;23;20440;-69
2022/11/18 06:02:23;;;;;;;2.00;0.70;;;11.70;87.70;;;;;;6031341;23;20390;-70
2022/11/18 06:04:56;;;;;;;1.23;0.80;;;11.60;87.80;;;;;;6030459;23;20440;-69
2022/11/18 06:07:30;;;;;;;1.23;1.13;;;11.60;87.70;;;;;;6031247;23;20386;-70
2022/11/18 06:10:00;;;;;;;0.90;0.67;;;11.60;87.80;;;;;;6029718;23;20436;-69
2022/11/18 06:12:38;;;;;;;0.80;0.70;;;11.60;87.70;;;;;;6033147;23;20374;-70
2022/11/18 06:15:13;;;;;;;1.27;0.80;;;11.60;87.70;;;;;;6030404;23;20456;-70
2022/11/18 06:17:45;;;;;;;1.37;0.70;;;11.60;87.70;;;;;;6029930;23;20396;-70
2022/11/18 06:20:14;;;;;;;1.23;0.70;;;11.60;87.70;;;;;;6030857;23;20394;-69
2022/11/18 06:22:42;;;;;;;1.37;0.60;;;11.60;87.70;;;;;;6030816;23;20894;-70
2022/11/18 06:25:14;;;;;;;1.47;0.90;;;11.60;87.70;;;;;;6029565;23;20517;-69
2022/11/18 06:27:45;;;;;;;0.80;0.60;;;11.60;87.80;;;;;;6031092;23;20390;-69
2022/11/18 06:30:14;;;;;;;0.80;0.70;;;11.60;87.80;;;;;;6030073;23;20397;-69
2022/11/18 06:32:42;;;;;;;1.67;0.60;;;11.60;87.80;;;;;;6030369;23;20404;-70
2022/11/18 06:35:11;;;;;;;1.13;0.73;;;11.60;87.70;;;;;;6054288;23;20747;-69
2022/11/18 06:37:40;;;;;;;0.70;0.63;;;11.60;87.70;;;;;;6031419;23;20433;-69
2022/11/18 06:40:09;;;;;;;0.70;0.70;;;11.60;87.80;;;;;;6054400;23;20448;-69
2022/11/18 06:45:25;;;;;;;1.53;0.73;;;11.60;87.70;;;;;;6030593;23;20549;-70
2022/11/18 06:47:57;;;;;;;2.10;1.17;;;11.60;87.80;;;;;;6031365;23;20382;-69
2022/11/18 06:50:25;;;;;;;0.90;0.70;;;11.60;87.80;;;;;;6033006;23;20388;-69
2022/11/18 06:52:54;;;;;;;1.10;0.77;;;11.60;87.80;;;;;;6032761;23;20898;-70
2022/11/18 06:55:22;;;;;;;2.97;0.70;;;11.60;87.80;;;;;;6030365;23;20468;-70
2022/11/18 06:57:51;;;;;;;1.07;0.70;;;11.60;87.90;;;;;;6030503;23;20473;-69
2022/11/18 07:00:20;;;;;;;1.70;1.00;;;11.60;87.80;;;;;;6006897;23;20413;-70
2022/11/18 07:02:50;;;;;;;2.13;0.77;;;11.60;87.90;;;;;;6030577;23;20374;-70
2022/11/18 07:05:19;;;;;;;1.73;1.03;;;11.60;87.90;;;;;;6031283;23;20448;-70
2022/11/18 07:07:48;;;;;;;0.77;0.60;;;11.60;87.90;;;;;;6030647;23;20425;-67
2022/11/18 07:10:17;;;;;;;1.83;0.90;;;11.60;87.90;;;;;;6029989;23;20448;-69
2022/11/18 07:12:45;;;;;;;1.00;0.60;;;11.60;88.60;;;;;;6031063;23;20389;-69
2022/11/18 07:15:14;;;;;;;1.27;0.63;;;11.60;87.80;;;;;;6030722;23;20421;-69
2022/11/18 07:17:42;;;;;;;1.83;1.00;;;11.60;87.80;;;;;;6030427;23;20404;-68
2022/11/18 07:20:12;;;;;;;0.90;0.87;;;11.60;87.80;;;;;;6030545;23;20455;-69
2022/11/18 07:22:42;;;;;;;1.33;0.90;;;11.60;87.90;;;;;;6031051;23;20403;-68
2022/11/18 07:25:11;;;;;;;3.40;0.90;;;11.60;87.80;;;;;;6029079;23;20444;-70
2022/11/18 07:27:39;;;;;;;1.23;1.13;;;11.60;87.90;;;;;;6030715;23;20425;-70
2022/11/18 07:30:09;;;;;;;2.30;0.67;;;11.60;87.80;;;;;;6047885;23;20436;-68
2022/11/18 07:32:37;;;;;;;1.13;0.73;;;11.60;87.80;;;;;;6079496;23;20871;-69
2022/11/18 07:35:06;;;;;;;1.43;0.83;;;11.60;87.80;;;;;;6031534;23;20445;-69
2022/11/18 07:37:36;;;;;;;1.57;0.87;;;11.60;87.80;;;;;;6032490;23;20720;-69
2022/11/18 07:40:06;;;;;;;1.00;0.80;;;11.60;87.70;;;;;;6029689;23;20524;-69
2022/11/18 07:42:41;;;;;;;1.57;0.77;;;11.60;87.80;;;;;;6032046;23;20389;-69
2022/11/18 07:45:23;;;;;;;3.20;0.80;;;11.60;87.80;;;;;;6030936;23;20437;-68
2022/11/18 07:47:53;;;;;;;1.90;0.80;;;11.60;87.70;;;;;;6032546;23;20390;-68
2022/11/18 07:50:21;;;;;;;0.97;0.80;;;11.50;87.60;;;;;;6031023;23;20492;-69
2022/11/18 07:52:51;;;;;;;1.87;0.93;;;11.60;87.70;;;;;;6032222;23;20378;-68
2022/11/18 07:55:19;;;;;;;1.83;0.90;;;11.50;87.70;;;;;;6032827;23;20402;-69
2022/11/18 07:57:47;;;;;;;1.07;1.00;;;11.50;87.70;;;;;;6031087;23;20389;-69
2022/11/18 08:00:17;;;;;;;0.87;0.70;;;11.50;87.80;;;;;;6031735;23;20897;-68
2022/11/18 08:02:49;;;;;;;4.90;1.93;;;11.50;87.70;;;;;;6031995;23;20374;-69
2022/11/18 08:05:18;;;;;;;1.27;0.90;;;11.50;87.70;;;;;;6033555;23;20468;-68
2022/11/18 08:07:46;;;;;;;0.83;0.60;;;11.50;87.80;;;;;;6032273;23;20424;-68
2022/11/18 08:10:17;;;;;;;0.87;0.80;;;11.50;87.70;;;;;;6030931;23;20444;-68
2022/11/18 08:12:45;;;;;;;1.10;1.00;;;11.50;87.70;;;;;;6032287;23;20386;-69
2022/11/18 08:15:14;;;;;;;2.10;0.90;;;11.50;87.70;;;;;;6031868;23;20467;-69
2022/11/18 08:17:42;;;;;;;1.17;1.00;;;11.50;87.70;;;;;;6030790;23;20444;-69
2022/11/18 08:20:11;;;;;;;1.20;0.93;;;11.50;87.70;;;;;;6030234;23;20512;-69
2022/11/18 08:22:40;;;;;;;3.50;0.90;;;11.50;87.70;;;;;;6030463;23;20722;-73
2022/11/18 08:25:09;;;;;;;1.10;0.60;;;11.50;87.70;;;;;;6029407;23;20476;-70
2022/11/18 08:27:39;;;;;;;2.00;0.70;;;11.60;87.80;;;;;;6030499;23;20393;-69
2022/11/18 08:30:09;;;;;;;1.17;0.63;;;11.60;87.70;;;;;;6029787;23;20417;-69
2022/11/18 08:32:37;;;;;;;0.77;0.60;;;11.50;87.60;;;;;;6030066;23;20386;-68
2022/11/18 08:35:07;;;;;;;1.17;0.93;;;11.60;87.70;;;;;;6031156;23;20946;-70
2022/11/18 08:37:38;;;;;;;1.27;0.60;;;11.60;87.60;;;;;;6031788;23;20381;-70
2022/11/18 08:40:09;;;;;;;0.93;0.77;;;11.60;87.50;;;;;;6031493;23;20942;-71
2022/11/18 08:42:38;;;;;;;1.10;0.87;;;11.60;87.40;;;;;;6031049;23;20728;-69
2022/11/18 08:45:08;;;;;;;0.77;0.60;;;11.60;87.30;;;;;;6030492;23;20441;-70
2022/11/18 08:47:37;;;;;;;0.70;0.57;;;11.60;87.30;;;;;;6030724;23;20473;-69
2022/11/18 08:50:08;;;;;;;1.77;0.93;;;11.60;87.20;;;;;;6030324;23;20491;-70
2022/11/18 08:52:36;;;;;;;1.80;0.80;;;11.60;87.10;;;;;;6030485;23;20740;-68
2022/11/18 08:55:05;;;;;;;2.70;1.43;;;11.60;87.50;;;;;;6028536;23;20441;-69
2022/11/18 08:57:33;;;;;;;0.77;0.63;;;11.60;87.40;;;;;;6028219;23;20851;-68
2022/11/18 09:02:53;;;;;;;1.40;0.53;;;11.60;87.10;;;;;;6030619;23;20772;-49
2022/11/18 09:05:21;;;;;;;0.87;0.77;;;11.60;87.10;;;;;;6006804;23;20417;-50
2022/11/18 09:07:50;;;;;;;2.67;1.03;;;11.60;87.00;;;;;;6030174;23;20425;-50
2022/11/18 09:10:19;;;;;;;0.73;0.60;;;11.60;86.90;;;;;;6028985;23;20377;-50
2022/11/18 09:12:51;;;;;;;2.10;0.67;;;11.60;87.00;;;;;;6031313;23;20471;-50
2022/11/18 09:15:22;;;;;;;1.73;0.90;;;11.60;86.90;;;;;;6005975;23;20469;-50
2022/11/18 09:17:53;;;;;;;0.80;0.80;;;11.60;86.80;;;;;;6032038;23;20398;-50
2022/11/18 09:20:21;;;;;;;1.53;1.43;;;11.60;86.80;;;;;;6031091;23;20440;-50
2022/11/18 09:22:51;;;;;;;1.37;0.60;;;11.60;86.80;;;;;;6033016;23;20452;-50
2022/11/18 09:25:19;;;;;;;1.63;0.80;;;11.70;86.80;;;;;;6030446;23;20428;-50
2022/11/18 09:27:48;;;;;;;1.00;0.87;;;11.70;86.70;;;;;;6031684;23;20405;-50
2022/11/18 09:30:17;;;;;;;3.13;0.70;;;11.70;86.70;;;;;;6031410;23;20406;-50
2022/11/18 09:32:46;;;;;;;0.80;0.77;;;11.70;86.70;;;;;;6030664;23;20749;-49
2022/11/18 09:35:16;;;;;;;1.30;1.00;;;11.70;86.60;;;;;;6030728;23;20512;-50
2022/11/18 09:37:45;;;;;;;0.70;0.60;;;11.70;86.60;;;;;;6031240;23;20850;-49
2022/11/18 09:40:17;;;;;;;0.87;0.60;;;11.70;86.60;;;;;;6028796;23;20452;-50
2022/11/18 09:42:57;;;;;;;1.70;0.87;;;11.70;86.50;;;;;;6030856;23;20410;-50
2022/11/18 09:45:32;;;;;;;3.00;0.97;;;11.70;86.50;;;;;;6006081;23;20429;-48
2022/11/18 09:48:06;;;;;;;0.73;0.50;;;11.70;86.40;;;;;;6027906;23;20440;-48
2022/11/18 09:50:39;;;;;;;2.60;0.63;;;11.70;86.40;;;;;;6031815;23;20374;-50
2022/11/18 09:53:20;;;;;;;1.80;0.50;;;11.70;86.40;;;;;;6018504;23;20463;-49
2022/11/18 09:55:51;;;;;;;1.23;0.70;;;11.70;86.40;;;;;;6029249;23;20378;-49
2022/11/18 09:58:27;;;;;;;3.53;0.80;;;11.70;86.40;;;;;;6003671;23;20378;-50
2022/11/18 10:00:56;;;;;;;2.50;0.67;;;11.70;86.50;;;;;;6026576;23;20720;-49
2022/11/18 10:03:28;;;;;;;4.67;1.13;;;11.70;86.40;;;;;;6029014;23;20460;-49
2022/11/18 10:06:08;;;;;;;15.53;1.20;;;11.70;86.40;;;;;;6031296;23;20417;-49
2022/11/18 10:08:41;;;;;;;1.53;0.60;;;11.70;86.40;;;;;;6031555;23;20484;-49
2022/11/18 10:11:15;;;;;;;1.33;0.97;;;11.70;86.30;;;;;;6007822;23;20476;-49
2022/11/18 10:13:55;;;;;;;1.40;0.70;;;11.70;86.30;;;;;;6006582;23;20531;-49
2022/11/18 10:16:40;;;;;;;1.57;0.80;;;11.70;86.30;;;;;;6030857;23;20382;-49
2022/11/18 10:19:22;;;;;;;2.73;0.80;;;11.70;86.30;;;;;;6030707;23;20429;-49
2022/11/18 10:22:11;;;;;;;2.27;1.20;;;11.70;86.40;;;;;;6007601;23;20382;-49
2022/11/18 10:24:51;;;;;;;0.70;0.60;;;11.70;86.40;;;;;;6006406;23;20771;-50
2022/11/18 10:27:21;;;;;;;1.70;0.60;;;11.70;86.30;;;;;;6031489;23;20378;-49
2022/11/18 10:29:55;;;;;;;1.63;0.70;;;11.70;86.30;;;;;;6029769;23;20445;-49
2022/11/18 10:32:24;;;;;;;1.23;0.60;;;11.70;86.40;;;;;;6031625;23;20412;-49
2022/11/18 10:35:01;;;;;;;1.10;0.60;;;11.70;86.30;;;;;;6031649;23;20531;-49
2022/11/18 10:37:41;;;;;;;3.10;1.00;;;11.70;86.40;;;;;;6006751;23;20694;-50
2022/11/18 10:40:58;;;;;;;1.77;0.70;;;11.70;86.40;;;;;;6029955;23;20509;-50
2022/11/18 10:43:58;;;;;;;0.90;0.70;;;11.70;86.40;;;;;;6003647;23;20515;-50
2022/11/18 10:46:38;;;;;;;0.60;0.50;;;11.70;86.80;;;;;;6027668;23;20488;-50
2022/11/18 10:49:24;;;;;;;1.47;0.90;;;11.70;86.50;;;;;;6027286;23;20433;-49
2022/11/18 10:52:22;;;;;;;0.80;0.53;;;11.70;86.40;;;;;;6009762;23;20444;-49
2022/11/18 10:55:34;;;;;;;6.03;1.17;;;11.70;86.50;;;;;;6029349;23;20444;-49
2022/11/18 10:58:23;;;;;;;2.27;0.50;;;11.70;87.70;;;;;;6039618;23;20812;-49
2022/11/18 11:01:18;;;;;;;1.17;0.80;;;11.70;86.40;;;;;;6025698;23;20413;-49
2022/11/18 11:04:16;;;;;;;0.70;0.50;;;11.70;86.60;;;;;;6028992;23;20441;-49
2022/11/18 11:06:45;;;;;;;2.17;0.47;;;11.70;86.50;;;;;;6031676;23;20806;-50
2022/11/18 11:09:27;;;;;;;1.53;0.90;;;11.70;86.50;;;;;;6005694;23;20441;-50
2022/11/18 11:11:59;;;;;;;1.37;0.67;;;11.70;86.50;;;;;;6032236;23;20444;-49
2022/11/18 11:14:35;;;;;;;1.27;0.70;;;11.70;86.50;;;;;;6030820;23;20516;-50
2022/11/18 11:17:09;;;;;;;2.23;1.10;;;11.70;86.50;;;;;;6027957;23;20373;-50
2022/11/18 11:19:44;;;;;;;1.10;0.60;;;11.70;86.60;;;;;;6006778;23;20458;-49
2022/11/18 11:22:14;;;;;;;1.30;1.00;;;11.70;86.50;;;;;;6005812;23;20405;-49
2022/11/18 11:24:43;;;;;;;0.70;0.50;;;11.70;86.60;;;;;;6027597;23;20437;-49
2022/11/18 11:27:28;;;;;;;1.10;0.60;;;11.70;86.50;;;;;;6031155;23;20479;-50
2022/11/18 11:30:19;;;;;;;1.13;0.60;;;11.70;86.50;;;;;;6031271;23;20431;-50
2022/11/18 11:33:22;;;;;;;1.00;0.73;;;11.70;86.50;;;;;;6031355;23;20428;-49
2022/11/18 11:36:11;;;;;;;2.70;0.80;;;11.70;86.60;;;;;;6029947;23;20940;-50
2022/11/18 11:38:57;;;;;;;4.27;0.70;;;11.70;86.60;;;;;;6029345;23;20409;-50
2022/11/18 11:41:41;;;;;;;1.97;1.20;;;11.70;86.50;;;;;;6032310;23;20709;-49
2022/11/18 11:44:31;;;;;;;1.20;0.70;;;11.70;86.60;;;;;;6005217;23;20507;-50
2022/11/18 11:50:02;;;;;;;0.80;0.70;;;11.70;86.70;;;;;;6025746;23;20441;-49
2022/11/18 11:52:40;;;;;;;3.30;0.70;;;11.70;86.60;;;;;;6029322;23;20975;-49
2022/11/18 11:55:18;;;;;;;0.90;0.60;;;11.70;86.80;;;;;;6028332;23;20436;-49
2022/11/18 11:58:05;;;;;;;0.97;0.57;;;11.70;86.60;;;;;;6026914;23;20464;-50
2022/11/18 12:00:40;;;;;;;0.97;0.53;;;11.70;86.60;;;;;;6027928;23;20504;-50
2022/11/18 12:03:33;;;;;;;2.03;0.63;;;11.70;86.50;;;;;;6028980;23;20429;-50
2022/11/18 12:06:01;;;;;;;0.80;0.50;;;11.70;86.50;;;;;;6005174;23;20727;-50
2022/11/18 12:08:32;;;;;;;0.70;0.60;;;11.70;86.60;;;;;;6025020;23;20523;-50
2022/11/18 12:11:07;;;;;;;1.20;0.90;;;11.70;86.50;;;;;;6029273;23;20389;-50
2022/11/18 12:13:43;;;;;;;1.77;0.73;;;11.70;86.50;;;;;;6029271;23;20420;-50
2022/11/18 12:16:24;;;;;;;0.80;0.60;;;11.70;86.50;;;;;;6027410;23;20386;-50
2022/11/18 12:18:58;;;;;;;1.00;0.70;;;11.70;86.40;;;;;;6029681;23;20441;-50
2022/11/18 12:21:52;;;;;;;2.20;0.90;;;11.70;86.60;;;;;;6029207;23;20405;-50
2022/11/18 12:24:34;;;;;;;1.80;1.37;;;11.70;86.50;;;;;;6029520;23;20465;-50
2022/11/18 12:27:10;;;;;;;1.30;0.80;;;11.70;86.50;;;;;;6029466;23;20417;-50
2022/11/18 12:29:44;;;;;;;1.00;0.50;;;11.70;86.50;;;;;;6027736;23;20443;-49
2022/11/18 12:32:30;;;;;;;1.90;0.60;;;11.70;86.60;;;;;;6026812;23;20922;-50
2022/11/18 12:35:22;;;;;;;1.30;0.57;;;11.70;86.60;;;;;;6026955;23;20436;-50
2022/11/18 12:38:04;;;;;;;0.70;0.50;;;11.70;86.60;;;;;;5987130;23;20385;-51
2022/11/18 12:40:39;;;;;;;1.70;0.60;;;11.70;86.60;;;;;;6007648;23;20666;-50
2022/11/18 12:43:55;;;;;;;2.53;0.70;;;11.70;86.60;;;;;;6005569;23;20420;-51
2022/11/18 12:46:55;;;;;;;1.20;0.90;;;11.70;86.70;;;;;;6061518;23;20465;-49
2022/11/18 12:50:03;;;;;;;3.20;1.80;;;11.70;86.60;;;;;;6023360;23;20453;-52
2022/11/18 12:52:53;;;;;;;2.80;1.00;;;11.70;86.80;;;;;;6037280;23;20417;-51
2022/11/18 12:55:31;;;;;;;4.30;1.30;;;11.70;86.70;;;;;;6031872;23;20424;-49
2022/11/18 12:58:00;;;;;;;1.37;1.07;;;11.70;86.80;;;;;;6026513;23;20472;-50
2022/11/18 13:00:32;;;;;;;0.90;0.90;;;11.70;86.70;;;;;;6025736;23;20713;-50
2022/11/18 13:03:02;;;;;;;0.87;0.67;;;11.70;86.60;;;;;;6003251;23;20425;-50
2022/11/18 13:05:33;;;;;;;2.07;1.07;;;11.70;86.50;;;;;;6028210;23;20393;-50
2022/11/18 13:08:14;;;;;;;1.50;1.20;;;11.70;86.60;;;;;;6028178;23;20418;-51
2022/11/18 13:10:49;;;;;;;2.10;1.00;;;11.70;86.60;;;;;;6028926;23;20437;-50
2022/11/18 13:13:29;;;;;;;1.37;1.27;;;11.70;86.60;;;;;;6027434;23;20513;-50
2022/11/18 13:18:53;;;;;;;2.03;1.17;;;11.70;86.60;;;;;;6028525;23;20765;-50
2022/11/18 13:24:15;;;;;;;4.67;0.83;;;11.70;86.70;;;;;;6024875;23;20783;-50
2022/11/18 13:26:45;;;;;;;2.70;1.07;;;11.70;86.70;;;;;;6027392;23;20923;-50
2022/11/18 13:29:25;;;;;;;1.03;0.83;;;11.70;86.70;;;;;;6024735;23;20499;-50
2022/11/18 13:32:12;;;;;;;1.20;0.80;;;11.70;86.70;;;;;;6026476;23;20381;-50
2022/11/18 13:34:47;;;;;;;1.10;0.90;;;11.70;86.80;;;;;;6027631;23;20440;-50
2022/11/18 13:37:18;;;;;;;2.73;0.83;;;11.70;86.80;;;;;;6027037;23;20381;-50
2022/11/18 13:39:48;;;;;;;1.20;0.80;;;11.70;86.80;;;;;;6026663;23;20505;-50
2022/11/18 13:42:20;;;;;;;1.43;0.90;;;11.70;86.90;;;;;;6029842;23;20456;-51
2022/11/18 13:44:56;;;;;;;1.70;0.97;;;11.70;86.80;;;;;;6005966;23;20429;-50
2022/11/18 13:47:35;;;;;;;0.90;0.73;;;11.70;86.80;;;;;;6030229;23;20541;-50
2022/11/18 13:50:16;;;;;;;2.93;0.93;;;11.70;86.80;;;;;;6029542;23;20954;-50